Time;durP1;ratioP1;P1;durP2;ratioP2;P2;SDS_P1;SDS_P2;PMS_P1;PMS_P2;Temp;Humidity;BMP_temperature;BMP_pressure;BME280_temperature;BME280_humidity;BME280_pressure;Samples;Min_cycle;Max_cycle;Signal;HPM_P1;HPM_P2
2021/08/19 00:01:54;;;;;;;1.80;1.70;;;23.40;35.00;;;;;;5037672;28;20470;-68
2021/08/19 00:04:19;;;;;;;2.20;1.97;;;23.40;35.00;;;;;;5037414;28;20761;-67
2021/08/19 00:06:45;;;;;;;3.47;2.20;;;23.40;35.00;;;;;;5036910;28;20284;-67
2021/08/19 00:09:10;;;;;;;2.13;2.03;;;23.40;35.00;;;;;;5038421;28;20227;-67
2021/08/19 00:11:36;;;;;;;2.20;1.80;;;23.40;35.00;;;;;;5037866;28;20234;-68
2021/08/19 00:14:01;;;;;;;1.83;1.73;;;23.40;35.00;;;;;;5037341;28;20220;-67
2021/08/19 00:16:27;;;;;;;1.83;1.73;;;23.40;35.00;;;;;;5036890;28;20226;-68
2021/08/19 00:18:52;;;;;;;3.07;1.73;;;23.40;35.00;;;;;;5037075;28;20685;-66
2021/08/19 00:21:18;;;;;;;5.10;1.93;;;23.40;35.10;;;;;;5037053;28;20220;-68
2021/08/19 00:23:43;;;;;;;3.67;1.90;;;23.30;35.10;;;;;;5037357;28;20230;-66
2021/08/19 00:26:09;;;;;;;2.37;2.10;;;23.40;35.20;;;;;;5036347;28;20227;-67
2021/08/19 00:28:35;;;;;;;1.90;1.80;;;23.40;35.20;;;;;;5037179;28;20314;-66
2021/08/19 00:31:01;;;;;;;2.80;2.00;;;23.30;35.10;;;;;;5037119;28;20442;-68
2021/08/19 00:33:26;;;;;;;1.87;1.77;;;23.40;35.30;;;;;;5036949;28;20605;-69
2021/08/19 00:35:52;;;;;;;1.63;1.53;;;23.40;35.20;;;;;;5036793;28;20457;-68
2021/08/19 00:38:17;;;;;;;2.00;1.80;;;23.30;35.30;;;;;;5036779;28;20698;-69
2021/08/19 00:40:43;;;;;;;1.53;1.43;;;23.40;35.20;;;;;;5037273;28;20310;-66
2021/08/19 00:43:08;;;;;;;1.63;1.53;;;23.30;35.00;;;;;;5036353;28;20227;-70
2021/08/19 00:45:37;;;;;;;4.87;1.80;;;23.40;35.10;;;;;;5036817;28;20226;-66
2021/08/19 00:48:04;;;;;;;1.70;1.60;;;23.40;35.10;;;;;;5036782;28;20292;-67
2021/08/19 00:50:30;;;;;;;2.20;1.47;;;23.30;34.90;;;;;;5037368;28;20443;-67
2021/08/19 00:52:59;;;;;;;2.67;1.73;;;23.40;35.00;;;;;;5038444;28;20809;-67
2021/08/19 00:55:25;;;;;;;1.63;1.53;;;23.30;34.90;;;;;;5040921;28;20224;-67
2021/08/19 00:57:50;;;;;;;1.80;1.60;;;23.30;34.80;;;;;;5040663;28;21137;-68
2021/08/19 01:00:16;;;;;;;2.80;1.67;;;23.40;34.90;;;;;;5040344;28;20339;-67
2021/08/19 01:02:46;;;;;;;1.53;1.43;;;23.30;34.90;;;;;;5040327;28;20246;-69
2021/08/19 01:05:14;;;;;;;1.70;1.60;;;23.30;35.60;;;;;;5039915;28;20462;-67
2021/08/19 01:07:40;;;;;;;1.80;1.70;;;23.30;34.90;;;;;;5040346;28;20446;-66
2021/08/19 01:10:06;;;;;;;1.50;1.40;;;23.30;34.80;;;;;;5040500;28;20453;-66
2021/08/19 01:12:31;;;;;;;1.87;1.37;;;23.40;35.00;;;;;;5040596;28;20235;-66
2021/08/19 01:14:57;;;;;;;1.57;1.47;;;23.30;34.80;;;;;;5039818;28;20446;-68
2021/08/19 01:17:22;;;;;;;3.10;1.80;;;23.30;34.90;;;;;;5040247;28;20219;-66
2021/08/19 01:19:49;;;;;;;3.07;1.40;;;23.30;34.80;;;;;;5040381;28;20314;-66
2021/08/19 01:22:16;;;;;;;1.50;1.40;;;23.30;34.90;;;;;;5039955;28;20227;-68
2021/08/19 01:24:42;;;;;;;1.43;1.33;;;23.30;34.90;;;;;;5037630;28;20438;-68
2021/08/19 01:27:15;;;;;;;1.63;1.53;;;23.30;34.90;;;;;;5040422;28;20445;-67
2021/08/19 01:29:43;;;;;;;1.50;1.40;;;23.30;34.90;;;;;;5039801;28;20464;-69
2021/08/19 01:32:10;;;;;;;1.80;1.60;;;23.30;34.90;;;;;;5039802;28;20443;-66
2021/08/19 01:34:37;;;;;;;1.70;1.60;;;23.30;34.90;;;;;;5039958;28;20438;-67
2021/08/19 01:37:04;;;;;;;1.70;1.60;;;23.30;35.00;;;;;;5039767;28;20841;-67
2021/08/19 01:39:29;;;;;;;1.60;1.50;;;23.20;34.90;;;;;;5039976;28;20446;-67
2021/08/19 01:41:55;;;;;;;1.53;1.43;;;23.30;35.00;;;;;;5040011;28;20496;-66
2021/08/19 01:44:21;;;;;;;1.70;1.60;;;23.20;34.90;;;;;;5039741;28;20647;-68
2021/08/19 01:46:55;;;;;;;1.60;1.50;;;23.20;34.90;;;;;;5039260;28;20450;-69
2021/08/19 01:49:21;;;;;;;1.30;1.30;;;23.30;34.90;;;;;;5040092;28;20228;-67
2021/08/19 01:51:48;;;;;;;1.60;1.50;;;23.30;35.00;;;;;;5039691;28;20515;-67
2021/08/19 01:54:13;;;;;;;1.50;1.40;;;23.30;34.90;;;;;;5037467;28;20231;-67
2021/08/19 01:56:39;;;;;;;1.50;1.40;;;23.20;34.90;;;;;;5039375;28;20983;-68
2021/08/19 01:59:05;;;;;;;1.40;1.30;;;23.20;35.00;;;;;;5037991;28;20228;-68
2021/08/19 02:01:31;;;;;;;2.03;1.80;;;23.20;35.00;;;;;;5039559;28;21391;-68
2021/08/19 02:03:56;;;;;;;1.40;1.30;;;23.20;35.00;;;;;;5038862;28;20219;-67
2021/08/19 02:06:22;;;;;;;1.47;1.37;;;23.20;34.90;;;;;;5039268;28;20251;-68
2021/08/19 02:08:47;;;;;;;1.60;1.50;;;23.20;34.90;;;;;;5038163;28;20231;-68
2021/08/19 02:11:13;;;;;;;1.80;1.70;;;23.20;35.00;;;;;;5039685;28;20250;-68
2021/08/19 02:13:39;;;;;;;1.73;1.63;;;23.20;34.90;;;;;;5039239;28;20436;-68
2021/08/19 02:16:05;;;;;;;1.47;1.40;;;23.30;34.90;;;;;;5039453;28;20234;-66
2021/08/19 02:18:31;;;;;;;1.63;1.53;;;23.20;34.90;;;;;;5039294;28;20257;-66
2021/08/19 02:20:56;;;;;;;1.53;1.43;;;23.20;34.90;;;;;;5039165;28;20462;-67
2021/08/19 02:23:22;;;;;;;1.97;1.53;;;23.20;34.90;;;;;;5039335;28;20254;-67
2021/08/19 02:25:47;;;;;;;3.93;1.70;;;23.20;34.90;;;;;;5039123;28;20273;-66
2021/08/19 02:28:13;;;;;;;1.60;1.50;;;23.20;34.90;;;;;;5039011;28;20243;-68
2021/08/19 02:30:39;;;;;;;1.40;1.30;;;23.20;35.00;;;;;;5038990;28;20280;-67
2021/08/19 02:33:04;;;;;;;1.43;1.33;;;23.20;34.90;;;;;;5038419;28;20690;-68
2021/08/19 02:35:31;;;;;;;1.20;1.20;;;23.20;34.90;;;;;;5038523;28;20215;-66
2021/08/19 02:38:06;;;;;;;1.40;1.30;;;23.20;34.90;;;;;;5038985;28;20281;-68
2021/08/19 02:40:31;;;;;;;1.40;1.30;;;23.20;34.80;;;;;;5038028;28;21568;-67
2021/08/19 02:42:57;;;;;;;1.77;1.63;;;23.20;34.90;;;;;;5038709;28;20476;-70
2021/08/19 02:45:22;;;;;;;4.83;1.50;;;23.20;34.90;;;;;;5038554;28;20231;-66
2021/08/19 02:47:48;;;;;;;1.30;1.30;;;23.20;34.90;;;;;;5038102;28;20232;-66
2021/08/19 02:50:14;;;;;;;1.30;1.20;;;23.20;34.90;;;;;;5038046;28;20215;-69
2021/08/19 02:52:40;;;;;;;1.60;1.50;;;23.20;34.90;;;;;;5038588;28;20224;-69
2021/08/19 02:55:07;;;;;;;1.83;1.73;;;23.20;35.00;;;;;;5037970;28;20438;-66
2021/08/19 02:57:33;;;;;;;1.57;1.47;;;23.20;34.90;;;;;;5038060;28;20527;-67
2021/08/19 02:59:59;;;;;;;1.20;1.20;;;23.20;34.90;;;;;;5038651;28;20851;-66
2021/08/19 03:02:24;;;;;;;1.60;1.50;;;23.20;35.10;;;;;;5038577;28;20546;-66
2021/08/19 03:04:50;;;;;;;1.50;1.50;;;23.20;35.10;;;;;;5037847;28;20490;-66
2021/08/19 03:07:16;;;;;;;1.70;1.60;;;23.20;35.10;;;;;;5038028;28;20219;-66
2021/08/19 03:09:41;;;;;;;1.60;1.50;;;23.20;35.20;;;;;;5037898;28;20239;-67
2021/08/19 03:12:07;;;;;;;1.60;1.50;;;23.20;35.20;;;;;;5037835;28;20241;-66
2021/08/19 03:14:34;;;;;;;1.80;1.70;;;23.20;35.30;;;;;;5038563;28;20223;-68
2021/08/19 03:17:00;;;;;;;2.07;1.57;;;23.20;35.20;;;;;;5036310;28;20451;-68
2021/08/19 03:19:25;;;;;;;1.30;1.30;;;23.20;35.40;;;;;;5037725;28;20944;-69
2021/08/19 03:21:51;;;;;;;1.43;1.33;;;23.20;35.40;;;;;;5037063;28;20496;-67
2021/08/19 03:24:16;;;;;;;3.43;1.80;;;23.20;35.40;;;;;;5037834;28;20658;-68
2021/08/19 03:26:42;;;;;;;1.60;1.50;;;23.20;35.30;;;;;;5037275;28;20223;-66
2021/08/19 03:29:07;;;;;;;1.50;1.40;;;23.20;35.30;;;;;;5037909;28;20228;-69
2021/08/19 03:31:33;;;;;;;2.50;1.53;;;23.20;35.30;;;;;;5037894;28;20231;-67
2021/08/19 03:33:58;;;;;;;1.60;1.50;;;23.20;35.30;;;;;;5037425;28;20779;-68
2021/08/19 03:36:25;;;;;;;1.57;1.47;;;23.20;35.20;;;;;;5037490;28;20220;-66
2021/08/19 03:38:51;;;;;;;1.40;1.40;;;23.20;35.20;;;;;;5037574;28;20326;-70
2021/08/19 03:41:17;;;;;;;1.30;1.30;;;23.30;35.30;;;;;;5037719;28;20533;-66
2021/08/19 03:43:45;;;;;;;1.37;1.27;;;23.30;35.20;;;;;;5037653;28;20867;-66
2021/08/19 03:46:11;;;;;;;1.47;1.37;;;23.30;35.30;;;;;;5037336;28;20231;-68
2021/08/19 03:48:36;;;;;;;1.70;1.60;;;23.30;35.30;;;;;;5037222;28;20481;-68
2021/08/19 03:51:03;;;;;;;1.57;1.47;;;23.30;35.40;;;;;;5037649;28;20255;-68
2021/08/19 03:53:28;;;;;;;1.23;1.17;;;23.30;35.30;;;;;;5037576;28;20231;-69
2021/08/19 03:55:54;;;;;;;1.67;1.30;;;23.30;35.40;;;;;;5037495;28;20515;-65
2021/08/19 03:58:20;;;;;;;1.60;1.50;;;23.30;35.30;;;;;;5037622;28;20306;-64
2021/08/19 04:00:47;;;;;;;1.50;1.37;;;23.30;35.30;;;;;;5037775;28;20223;-68
2021/08/19 04:03:14;;;;;;;1.27;1.27;;;23.30;35.20;;;;;;5037324;28;20273;-66
2021/08/19 04:05:40;;;;;;;1.50;1.40;;;23.30;35.20;;;;;;5037184;28;20469;-66
2021/08/19 04:08:06;;;;;;;1.50;1.40;;;23.30;35.10;;;;;;5036111;28;20541;-69
2021/08/19 04:10:31;;;;;;;1.43;1.30;;;23.40;35.20;;;;;;5035250;28;20595;-66
2021/08/19 04:12:57;;;;;;;2.07;1.97;;;23.30;35.10;;;;;;5037366;28;20258;-65
2021/08/19 04:15:22;;;;;;;3.60;1.67;;;23.30;35.00;;;;;;5037249;28;20852;-66
2021/08/19 04:17:51;;;;;;;1.47;1.47;;;23.30;34.90;;;;;;5035916;28;20231;-68
2021/08/19 04:20:17;;;;;;;2.10;1.73;;;23.30;34.90;;;;;;5037328;28;20227;-69
2021/08/19 04:22:43;;;;;;;1.70;1.60;;;23.30;34.80;;;;;;5037561;28;20442;-65
2021/08/19 04:25:09;;;;;;;1.57;1.47;;;23.30;34.90;;;;;;5037229;28;20230;-70
2021/08/19 04:27:35;;;;;;;2.13;1.57;;;23.30;34.80;;;;;;5037490;28;20227;-65
2021/08/19 04:30:00;;;;;;;1.50;1.50;;;23.30;34.80;;;;;;5041175;28;20497;-68
2021/08/19 04:32:26;;;;;;;1.83;1.70;;;23.30;34.80;;;;;;5041477;28;20230;-66
2021/08/19 04:34:51;;;;;;;1.73;1.60;;;23.30;34.80;;;;;;5040502;28;20223;-67
2021/08/19 04:37:17;;;;;;;2.60;1.90;;;23.30;34.70;;;;;;5040066;28;20747;-68
2021/08/19 04:39:42;;;;;;;1.73;1.40;;;23.40;34.80;;;;;;5041267;28;20222;-68
2021/08/19 04:42:08;;;;;;;4.10;1.80;;;23.30;34.70;;;;;;5041416;28;20229;-68
2021/08/19 04:44:34;;;;;;;2.23;1.73;;;23.30;34.70;;;;;;5041415;28;20230;-67
2021/08/19 04:46:59;;;;;;;2.00;1.90;;;23.40;34.90;;;;;;5040779;28;20239;-67
2021/08/19 04:49:25;;;;;;;1.93;1.83;;;23.30;34.80;;;;;;5039988;28;21204;-67
2021/08/19 04:51:51;;;;;;;1.60;1.50;;;23.30;34.80;;;;;;5041010;28;20231;-69
2021/08/19 04:54:17;;;;;;;1.73;1.63;;;23.30;34.80;;;;;;5041333;28;20438;-65
2021/08/19 04:56:42;;;;;;;1.70;1.60;;;23.30;34.70;;;;;;5041633;28;20231;-69
2021/08/19 04:59:10;;;;;;;1.90;1.80;;;23.30;34.80;;;;;;5041520;28;20230;-66
2021/08/19 05:01:36;;;;;;;2.00;1.73;;;23.30;34.80;;;;;;5041170;28;20230;-66
2021/08/19 05:04:02;;;;;;;1.43;1.33;;;23.30;34.70;;;;;;5041362;28;20446;-66
2021/08/19 05:06:29;;;;;;;1.47;1.37;;;23.40;34.80;;;;;;5040725;28;20458;-66
2021/08/19 05:08:56;;;;;;;1.60;1.50;;;23.30;34.60;;;;;;5041008;28;20465;-66
2021/08/19 05:11:22;;;;;;;5.50;1.70;;;23.40;34.70;;;;;;5041021;28;20455;-66
2021/08/19 05:13:49;;;;;;;2.00;1.80;;;23.40;34.70;;;;;;5041113;28;20454;-67
2021/08/19 05:16:15;;;;;;;3.47;1.50;;;23.40;34.60;;;;;;5040333;28;20886;-68
2021/08/19 05:18:40;;;;;;;2.03;1.73;;;23.30;34.50;;;;;;5040478;28;20545;-68
2021/08/19 05:21:08;;;;;;;2.00;1.90;;;23.30;34.50;;;;;;5041895;28;20285;-67
2021/08/19 05:23:34;;;;;;;1.40;1.40;;;23.30;34.40;;;;;;5040946;28;20310;-67
2021/08/19 05:26:00;;;;;;;1.73;1.63;;;23.30;34.40;;;;;;5040209;28;20541;-67
2021/08/19 05:28:25;;;;;;;2.57;1.40;;;23.30;34.50;;;;;;5040324;28;20230;-68
2021/08/19 05:30:51;;;;;;;1.63;1.53;;;23.30;34.50;;;;;;5040391;28;20297;-69
2021/08/19 05:33:17;;;;;;;1.93;1.60;;;23.30;34.60;;;;;;5040468;28;20277;-68
2021/08/19 05:35:42;;;;;;;2.70;1.77;;;23.30;34.60;;;;;;5040965;28;20302;-67
2021/08/19 05:38:08;;;;;;;2.73;1.83;;;23.30;34.80;;;;;;5039957;28;21024;-70
2021/08/19 05:40:33;;;;;;;2.00;1.83;;;23.30;34.70;;;;;;5038950;28;20272;-67
2021/08/19 05:42:59;;;;;;;1.70;1.60;;;23.30;34.70;;;;;;5040007;28;20223;-67
2021/08/19 05:45:25;;;;;;;3.90;1.70;;;23.30;34.70;;;;;;5040036;28;20236;-68
2021/08/19 05:47:50;;;;;;;2.30;1.97;;;23.30;34.70;;;;;;5039985;28;20318;-70
2021/08/19 05:50:16;;;;;;;1.53;1.30;;;23.30;34.70;;;;;;5040207;28;20216;-66
2021/08/19 05:52:42;;;;;;;1.70;1.60;;;23.30;34.70;;;;;;5039662;28;20326;-66
2021/08/19 05:55:08;;;;;;;1.73;1.63;;;23.30;34.70;;;;;;5039752;28;20814;-67
2021/08/19 05:57:33;;;;;;;2.50;1.63;;;23.40;34.80;;;;;;5038418;28;20549;-67
2021/08/19 05:59:59;;;;;;;2.13;2.03;;;23.40;34.80;;;;;;5040131;28;20227;-67
2021/08/19 06:02:24;;;;;;;1.70;1.60;;;23.30;34.80;;;;;;5039346;28;20254;-68
2021/08/19 06:04:50;;;;;;;1.73;1.63;;;23.30;34.70;;;;;;5039377;28;20583;-68
2021/08/19 06:07:15;;;;;;;3.57;1.97;;;23.40;34.80;;;;;;5039606;28;20234;-68
2021/08/19 06:09:41;;;;;;;2.00;1.73;;;23.40;34.80;;;;;;5039581;28;20266;-65
2021/08/19 06:12:07;;;;;;;1.93;1.83;;;23.40;34.80;;;;;;5039522;28;20268;-68
2021/08/19 06:14:32;;;;;;;3.03;2.00;;;23.30;34.60;;;;;;5039596;28;20240;-67
2021/08/19 06:16:59;;;;;;;1.60;1.50;;;23.40;34.80;;;;;;5039194;28;20298;-65
2021/08/19 06:19:24;;;;;;;1.90;1.80;;;23.40;34.80;;;;;;5039546;28;20793;-67
2021/08/19 06:21:50;;;;;;;1.70;1.60;;;23.40;34.90;;;;;;5039611;28;20596;-67
2021/08/19 06:24:16;;;;;;;1.60;1.50;;;23.30;34.80;;;;;;5039557;28;20318;-67
2021/08/19 06:26:41;;;;;;;2.00;1.80;;;23.30;34.80;;;;;;5038926;28;20515;-68
2021/08/19 06:29:07;;;;;;;5.43;2.73;;;23.40;34.90;;;;;;5039247;28;20262;-67
2021/08/19 06:31:33;;;;;;;4.17;3.20;;;23.30;34.80;;;;;;5042421;28;20743;-62
2021/08/19 06:33:58;;;;;;;5.37;2.60;;;23.40;35.00;;;;;;5039639;28;20223;-66
2021/08/19 06:36:24;;;;;;;5.47;2.80;;;23.40;35.00;;;;;;5041290;28;20322;-68
2021/08/19 06:38:53;;;;;;;5.40;3.03;;;23.30;34.90;;;;;;5041186;28;20714;-68
2021/08/19 06:41:23;;;;;;;5.07;2.73;;;23.30;34.80;;;;;;5041189;28;20238;-67
2021/08/19 06:43:49;;;;;;;3.67;2.50;;;23.40;34.90;;;;;;5041718;28;20446;-67
2021/08/19 06:46:14;;;;;;;6.60;2.57;;;23.40;34.80;;;;;;5040811;28;20461;-65
2021/08/19 06:48:40;;;;;;;3.67;2.40;;;23.30;34.70;;;;;;5041265;28;20310;-65
2021/08/19 06:51:05;;;;;;;8.50;2.77;;;23.40;34.70;;;;;;5041166;28;20220;-66
2021/08/19 06:53:31;;;;;;;3.30;2.47;;;23.40;34.70;;;;;;5041336;28;20223;-67
2021/08/19 06:55:56;;;;;;;4.50;2.50;;;23.40;34.50;;;;;;5040882;28;20698;-67
2021/08/19 06:58:22;;;;;;;2.97;2.50;;;23.40;34.50;;;;;;5041229;28;20711;-68
2021/08/19 07:00:47;;;;;;;2.87;2.30;;;23.40;35.20;;;;;;5041139;28;20228;-68
2021/08/19 07:03:16;;;;;;;5.33;2.30;;;23.40;34.30;;;;;;5041465;28;20230;-66
2021/08/19 07:05:43;;;;;;;2.77;2.23;;;23.30;34.30;;;;;;5041020;28;20219;-66
2021/08/19 07:08:09;;;;;;;3.80;2.63;;;23.40;34.30;;;;;;5041038;28;20470;-68
2021/08/19 07:10:35;;;;;;;2.57;1.97;;;23.40;34.30;;;;;;5041046;28;20818;-66
2021/08/19 07:13:00;;;;;;;2.00;1.73;;;23.30;34.20;;;;;;5040900;28;20449;-69
2021/08/19 07:15:27;;;;;;;3.60;2.20;;;23.30;34.20;;;;;;5041047;28;20227;-69
2021/08/19 07:17:53;;;;;;;4.23;2.07;;;23.30;34.20;;;;;;5040700;28;20231;-70
2021/08/19 07:20:19;;;;;;;3.57;2.07;;;23.40;34.30;;;;;;5040884;28;20451;-66
2021/08/19 07:22:45;;;;;;;2.20;2.00;;;23.40;34.30;;;;;;5040707;28;20301;-68
2021/08/19 07:25:12;;;;;;;2.70;2.30;;;23.30;34.30;;;;;;5040445;28;20227;-68
2021/08/19 07:27:37;;;;;;;3.00;2.20;;;23.30;34.40;;;;;;5040964;28;20964;-68
2021/08/19 07:30:04;;;;;;;2.40;2.20;;;23.40;34.50;;;;;;5040819;28;20445;-68
2021/08/19 07:32:29;;;;;;;3.13;1.87;;;23.30;34.40;;;;;;5038839;28;20222;-68
2021/08/19 07:34:55;;;;;;;1.67;1.57;;;23.40;34.40;;;;;;5040616;28;20442;-68
2021/08/19 07:37:20;;;;;;;1.93;1.83;;;23.40;34.20;;;;;;5040553;28;20668;-68
2021/08/19 07:39:46;;;;;;;1.87;1.67;;;23.40;34.40;;;;;;5040454;28;20219;-68
2021/08/19 07:42:11;;;;;;;2.70;1.70;;;23.40;34.30;;;;;;5040365;28;20223;-68
2021/08/19 07:44:37;;;;;;;2.50;1.80;;;23.40;34.20;;;;;;5040780;28;20739;-69
2021/08/19 07:47:03;;;;;;;2.63;1.80;;;23.40;34.20;;;;;;5040169;28;20322;-69
2021/08/19 07:49:28;;;;;;;3.33;2.10;;;23.40;34.20;;;;;;5039978;28;20219;-68
2021/08/19 07:51:54;;;;;;;2.30;2.10;;;23.40;34.20;;;;;;5040135;28;20223;-67
2021/08/19 07:54:19;;;;;;;2.70;2.10;;;23.40;34.20;;;;;;5039771;28;20578;-69
2021/08/19 07:56:45;;;;;;;2.00;1.80;;;23.40;34.20;;;;;;5039712;28;20230;-63
2021/08/19 07:59:11;;;;;;;7.77;2.27;;;23.40;34.20;;;;;;5039801;28;20235;-66
2021/08/19 08:01:36;;;;;;;2.53;2.17;;;23.40;34.20;;;;;;5039412;28;20266;-64
2021/08/19 08:04:03;;;;;;;5.90;2.70;;;23.40;34.10;;;;;;5040226;28;20219;-65
2021/08/19 08:06:29;;;;;;;6.43;2.27;;;23.40;34.20;;;;;;5039720;28;20605;-67
2021/08/19 08:08:54;;;;;;;2.67;2.37;;;23.40;34.40;;;;;;5038988;28;20455;-67
2021/08/19 08:11:20;;;;;;;2.17;1.97;;;23.40;34.50;;;;;;5020712;28;20224;-67
2021/08/19 08:13:45;;;;;;;2.40;2.20;;;23.40;34.50;;;;;;5019995;28;20243;-67
2021/08/19 08:16:11;;;;;;;2.13;2.03;;;23.40;34.40;;;;;;5020175;28;20224;-67
2021/08/19 08:18:36;;;;;;;2.47;2.27;;;23.40;34.40;;;;;;5033176;28;20235;-66
2021/08/19 08:21:02;;;;;;;3.23;2.10;;;23.40;34.30;;;;;;5039543;28;20227;-65
2021/08/19 08:23:32;;;;;;;2.43;2.23;;;23.40;34.30;;;;;;5039433;28;20694;-67
2021/08/19 08:25:59;;;;;;;2.27;2.10;;;23.40;34.30;;;;;;5041078;28;20561;-66
2021/08/19 08:28:30;;;;;;;2.07;1.97;;;23.40;34.30;;;;;;5039234;28;20979;-67
2021/08/19 08:30:57;;;;;;;2.83;2.63;;;23.50;34.30;;;;;;5038889;28;20476;-66
2021/08/19 08:33:23;;;;;;;2.80;2.47;;;23.50;34.20;;;;;;5040294;28;20492;-66
2021/08/19 08:35:50;;;;;;;4.37;2.33;;;23.40;34.20;;;;;;5039488;28;20446;-67
2021/08/19 08:38:18;;;;;;;2.33;1.90;;;23.40;34.30;;;;;;5038934;28;20457;-65
2021/08/19 08:40:48;;;;;;;2.10;1.97;;;23.40;34.20;;;;;;5039979;28;20454;-65
2021/08/19 08:43:16;;;;;;;2.40;2.20;;;23.50;35.00;;;;;;5039630;28;20983;-65
2021/08/19 08:45:45;;;;;;;3.10;1.73;;;23.50;34.20;;;;;;5039329;28;20482;-65
2021/08/19 08:48:13;;;;;;;2.30;2.10;;;23.50;34.20;;;;;;5039401;28;21018;-67
2021/08/19 08:50:40;;;;;;;1.80;1.70;;;23.50;34.10;;;;;;5039647;28;20822;-66
2021/08/19 08:53:07;;;;;;;2.13;2.03;;;23.50;34.00;;;;;;5039412;28;20450;-67
2021/08/19 08:55:33;;;;;;;2.10;2.00;;;23.50;34.10;;;;;;5039176;28;20529;-66
2021/08/19 08:57:59;;;;;;;2.20;2.00;;;23.50;34.00;;;;;;5039575;28;20458;-72
2021/08/19 09:00:25;;;;;;;1.90;1.80;;;23.40;33.90;;;;;;5039514;28;20236;-67
2021/08/19 09:02:50;;;;;;;1.97;1.87;;;23.50;33.90;;;;;;5039625;28;20251;-65
2021/08/19 09:05:23;;;;;;;2.30;2.20;;;23.50;33.80;;;;;;5038946;28;20319;-66
2021/08/19 09:08:00;;;;;;;2.53;2.37;;;23.40;33.80;;;;;;5039437;28;20242;-65
2021/08/19 09:10:31;;;;;;;2.33;2.13;;;23.40;33.90;;;;;;5039541;28;21016;-67
2021/08/19 09:13:04;;;;;;;2.33;1.93;;;23.40;33.90;;;;;;5037966;28;21473;-66
2021/08/19 09:15:30;;;;;;;2.10;2.00;;;23.40;34.00;;;;;;5041854;28;21050;-65
2021/08/19 09:17:56;;;;;;;2.43;2.33;;;23.40;34.00;;;;;;5042660;28;20458;-65
2021/08/19 09:20:43;;;;;;;2.37;2.27;;;23.40;34.10;;;;;;5043279;28;20219;-67
2021/08/19 09:23:10;;;;;;;2.10;2.00;;;23.30;34.00;;;;;;5042985;28;20975;-66
2021/08/19 09:25:45;;;;;;;2.00;1.90;;;23.40;34.20;;;;;;5043003;28;20470;-67
2021/08/19 09:28:21;;;;;;;2.20;2.10;;;23.30;34.10;;;;;;5041843;28;20453;-67
2021/08/19 09:31:08;;;;;;;1.80;1.70;;;23.40;34.40;;;;;;5043110;28;20449;-67
2021/08/19 09:33:41;;;;;;;1.73;1.63;;;23.30;34.20;;;;;;5043131;28;20473;-63
2021/08/19 09:36:07;;;;;;;1.97;1.83;;;23.30;34.30;;;;;;5042775;28;20860;-66
2021/08/19 09:38:39;;;;;;;2.10;2.00;;;23.30;34.20;;;;;;5042368;28;20447;-66
2021/08/19 09:41:18;;;;;;;2.00;1.90;;;23.40;34.30;;;;;;5042069;28;20815;-66
2021/08/19 09:43:50;;;;;;;2.20;2.00;;;23.30;34.20;;;;;;5042681;28;20442;-68
2021/08/19 09:46:31;;;;;;;1.70;1.60;;;23.30;34.20;;;;;;5042310;28;20454;-66
2021/08/19 09:49:00;;;;;;;2.50;2.30;;;23.30;34.20;;;;;;5031991;28;20462;-66
2021/08/19 09:51:27;;;;;;;2.13;2.00;;;23.40;34.20;;;;;;5022898;28;20524;-66
2021/08/19 09:53:58;;;;;;;2.40;2.20;;;23.40;34.20;;;;;;5022332;28;20486;-66
2021/08/19 09:56:37;;;;;;;2.17;2.07;;;23.40;34.20;;;;;;5022641;28;20451;-66
2021/08/19 09:59:19;;;;;;;2.00;1.83;;;23.40;34.10;;;;;;5022001;28;20463;-68
2021/08/19 10:01:49;;;;;;;2.10;1.97;;;23.40;34.00;;;;;;5027181;28;21341;-68
2021/08/19 10:04:15;;;;;;;2.00;1.90;;;23.50;33.90;;;;;;5042533;28;20612;-68
2021/08/19 10:06:42;;;;;;;1.93;1.70;;;23.50;33.70;;;;;;5041772;28;20464;-64
2021/08/19 10:09:07;;;;;;;2.07;1.97;;;23.50;33.70;;;;;;5041474;28;20453;-66
2021/08/19 10:11:34;;;;;;;3.33;2.20;;;23.50;33.70;;;;;;5042266;28;20454;-67
2021/08/19 10:14:03;;;;;;;2.10;2.00;;;23.50;33.60;;;;;;5041730;28;20315;-67
2021/08/19 10:16:34;;;;;;;1.77;1.67;;;23.50;33.50;;;;;;5041959;28;20835;-66
2021/08/19 10:19:05;;;;;;;2.20;2.07;;;23.50;33.60;;;;;;5041971;28;20830;-66
2021/08/19 10:21:32;;;;;;;2.10;1.90;;;23.50;33.60;;;;;;5041842;28;20484;-67
2021/08/19 10:23:58;;;;;;;1.80;1.63;;;23.50;33.50;;;;;;5041898;28;20481;-67
2021/08/19 10:26:24;;;;;;;1.70;1.60;;;23.50;33.50;;;;;;5040686;28;20454;-66
2021/08/19 10:28:58;;;;;;;1.80;1.70;;;23.50;33.50;;;;;;5041423;28;20821;-67
2021/08/19 10:31:36;;;;;;;1.93;1.83;;;23.50;33.50;;;;;;5041197;28;20223;-67
2021/08/19 10:34:02;;;;;;;1.70;1.60;;;23.50;33.40;;;;;;5042001;28;20446;-66
2021/08/19 10:36:30;;;;;;;2.20;2.10;;;23.50;33.30;;;;;;5040603;28;21924;-66
2021/08/19 10:39:18;;;;;;;2.00;1.90;;;23.50;33.00;;;;;;5041366;28;20447;-66
2021/08/19 10:41:43;;;;;;;1.90;1.80;;;23.50;32.90;;;;;;5041471;28;20832;-66
2021/08/19 10:44:10;;;;;;;2.07;1.97;;;23.50;32.90;;;;;;5041523;28;21228;-66
2021/08/19 10:46:43;;;;;;;1.70;1.60;;;23.50;32.90;;;;;;5041261;28;20228;-67
2021/08/19 10:49:35;;;;;;;1.73;1.63;;;23.50;32.90;;;;;;5037364;28;20450;-66
2021/08/19 10:52:07;;;;;;;2.03;1.93;;;23.50;32.90;;;;;;5040045;28;20446;-68
2021/08/19 10:54:40;;;;;;;2.13;1.77;;;23.50;32.90;;;;;;5039966;28;20847;-66
2021/08/19 10:57:23;;;;;;;1.73;1.63;;;23.50;33.00;;;;;;5038723;28;20533;-66
2021/08/19 11:00:05;;;;;;;1.50;1.40;;;23.50;32.90;;;;;;5039020;28;20516;-66
2021/08/19 11:02:43;;;;;;;3.60;1.67;;;23.50;33.70;;;;;;5038834;28;20453;-66
2021/08/19 11:05:29;;;;;;;2.07;1.63;;;23.50;32.90;;;;;;5037976;28;20466;-66
2021/08/19 11:07:57;;;;;;;1.70;1.60;;;23.50;32.90;;;;;;5026955;28;20438;-66
2021/08/19 11:10:28;;;;;;;1.70;1.60;;;23.50;33.00;;;;;;5038474;28;20452;-66
2021/08/19 11:13:04;;;;;;;1.80;1.70;;;23.50;32.90;;;;;;5038709;28;20508;-67
2021/08/19 11:15:30;;;;;;;1.60;1.50;;;23.50;32.90;;;;;;5038266;28;20457;-68
2021/08/19 11:17:58;;;;;;;2.90;1.77;;;23.50;32.90;;;;;;5038599;28;20529;-66
2021/08/19 11:20:29;;;;;;;2.10;2.00;;;23.50;32.90;;;;;;5038715;28;20877;-67
2021/08/19 11:23:08;;;;;;;1.37;1.37;;;23.50;32.90;;;;;;5038542;28;20434;-67
2021/08/19 11:25:39;;;;;;;1.97;1.83;;;23.50;32.90;;;;;;5037968;28;20465;-69
2021/08/19 11:28:11;;;;;;;1.70;1.53;;;23.50;32.90;;;;;;5037827;28;21046;-66
2021/08/19 11:30:40;;;;;;;1.47;1.37;;;23.50;32.90;;;;;;5038226;28;20453;-68
2021/08/19 11:33:24;;;;;;;1.77;1.67;;;23.50;32.90;;;;;;5038059;28;20463;-66
2021/08/19 11:35:52;;;;;;;1.60;1.50;;;23.60;33.00;;;;;;5037458;28;20535;-66
2021/08/19 11:38:23;;;;;;;1.90;1.70;;;23.50;33.00;;;;;;5038259;28;20507;-67
2021/08/19 11:40:51;;;;;;;1.77;1.67;;;23.60;33.10;;;;;;5037520;28;20457;-66
2021/08/19 11:43:27;;;;;;;1.70;1.60;;;23.50;32.90;;;;;;5038102;28;20459;-66
2021/08/19 11:46:11;;;;;;;2.40;1.67;;;23.60;33.10;;;;;;5038080;28;20561;-67
2021/08/19 11:48:46;;;;;;;1.80;1.70;;;23.50;33.10;;;;;;5038004;28;20830;-68
2021/08/19 11:51:23;;;;;;;1.60;1.50;;;23.60;33.20;;;;;;5037741;28;20934;-67
2021/08/19 11:53:57;;;;;;;1.97;1.87;;;23.50;33.20;;;;;;5037968;28;20545;-67
2021/08/19 11:56:26;;;;;;;2.00;1.70;;;23.50;33.30;;;;;;5037831;28;20481;-67
2021/08/19 11:59:03;;;;;;;1.60;1.50;;;23.50;33.30;;;;;;5037741;28;20466;-68
2021/08/19 12:01:30;;;;;;;2.20;2.00;;;23.60;33.50;;;;;;5036433;28;20499;-68
2021/08/19 12:03:57;;;;;;;2.13;1.93;;;23.60;33.60;;;;;;5037587;28;20505;-68
2021/08/19 12:06:24;;;;;;;1.90;1.80;;;23.50;33.50;;;;;;5028937;28;20505;-68
2021/08/19 12:08:52;;;;;;;2.00;1.80;;;23.50;34.20;;;;;;5018043;28;20455;-68
2021/08/19 12:11:21;;;;;;;2.80;1.80;;;23.50;33.50;;;;;;5018725;28;20451;-68
2021/08/19 12:13:50;;;;;;;1.60;1.50;;;23.60;33.60;;;;;;5038170;28;20515;-67
2021/08/19 12:16:20;;;;;;;2.70;1.87;;;23.60;33.70;;;;;;5037382;28;20461;-68
2021/08/19 12:19:10;;;;;;;1.93;1.70;;;23.60;33.70;;;;;;5037536;28;20450;-66
2021/08/19 12:21:40;;;;;;;1.70;1.53;;;23.60;33.70;;;;;;5037661;28;20461;-66
2021/08/19 12:24:17;;;;;;;2.03;1.80;;;23.60;33.70;;;;;;5037255;28;20446;-67
2021/08/19 12:26:59;;;;;;;2.03;1.93;;;23.60;33.70;;;;;;5037230;28;20508;-66
2021/08/19 12:29:25;;;;;;;1.83;1.73;;;23.60;33.80;;;;;;5037652;28;20450;-67
2021/08/19 12:31:51;;;;;;;1.77;1.67;;;23.60;33.80;;;;;;5037676;28;20488;-67
2021/08/19 12:34:18;;;;;;;1.70;1.60;;;23.60;33.80;;;;;;5037199;28;20571;-67
2021/08/19 12:36:45;;;;;;;2.70;1.80;;;23.60;33.90;;;;;;5037307;28;20544;-68
2021/08/19 12:39:15;;;;;;;2.00;1.90;;;23.50;33.80;;;;;;5037022;28;20504;-66
2021/08/19 12:41:41;;;;;;;3.40;2.40;;;23.50;33.90;;;;;;5036068;28;21006;-66
2021/08/19 12:44:09;;;;;;;2.43;2.27;;;23.60;34.00;;;;;;5037365;28;20450;-69
2021/08/19 12:46:37;;;;;;;2.30;2.07;;;23.50;33.90;;;;;;5037181;28;20488;-65
2021/08/19 12:49:21;;;;;;;1.97;1.87;;;23.50;33.90;;;;;;5038845;28;21243;-66
2021/08/19 12:51:46;;;;;;;2.00;1.80;;;23.50;34.00;;;;;;5041100;28;20447;-67